sensor_id;sensor_type;location;lat;lon;timestamp;P1;durP1;ratioP1;P2;durP2;ratioP2
42770;SDS011;28426;42.872;25.314;2023-07-13T00:00:40;15.32;;;10.65;;
42770;SDS011;28426;42.872;25.314;2023-07-13T00:03:11;19.23;;;11.07;;
42770;SDS011;28426;42.872;25.314;2023-07-13T00:05:43;17.35;;;10.52;;
42770;SDS011;28426;42.872;25.314;2023-07-13T00:08:17;17.02;;;11.68;;
42770;SDS011;28426;42.872;25.314;2023-07-13T00:10:48;16.25;;;10.65;;
42770;SDS011;28426;42.872;25.314;2023-07-13T00:13:22;15.73;;;10.40;;
42770;SDS011;28426;42.872;25.314;2023-07-13T00:15:53;13.63;;;10.00;;
42770;SDS011;28426;42.872;25.314;2023-07-13T00:18:24;14.57;;;10.07;;
42770;SDS011;28426;42.872;25.314;2023-07-13T00:20:57;16.23;;;11.02;;
42770;SDS011;28426;42.872;25.314;2023-07-13T00:26:07;14.48;;;10.00;;
42770;SDS011;28426;42.872;25.314;2023-07-13T00:28:40;15.38;;;10.75;;
42770;SDS011;28426;42.872;25.314;2023-07-13T00:31:11;13.40;;;9.77;;
42770;SDS011;28426;42.872;25.314;2023-07-13T00:33:44;15.50;;;10.05;;
42770;SDS011;28426;42.872;25.314;2023-07-13T00:36:15;14.82;;;9.93;;
42770;SDS011;28426;42.872;25.314;2023-07-13T00:38:48;15.35;;;10.23;;
42770;SDS011;28426;42.872;25.314;2023-07-13T00:41:20;15.38;;;10.48;;
42770;SDS011;28426;42.872;25.314;2023-07-13T00:43:51;13.70;;;10.00;;
42770;SDS011;28426;42.872;25.314;2023-07-13T00:46:23;16.27;;;10.43;;
42770;SDS011;28426;42.872;25.314;2023-07-13T00:48:57;14.87;;;9.27;;
42770;SDS011;28426;42.872;25.314;2023-07-13T00:51:34;13.57;;;10.20;;
42770;SDS011;28426;42.872;25.314;2023-07-13T00:54:13;16.73;;;10.55;;
42770;SDS011;28426;42.872;25.314;2023-07-13T00:56:45;15.38;;;9.88;;
42770;SDS011;28426;42.872;25.314;2023-07-13T00:59:19;14.15;;;10.18;;
42770;SDS011;28426;42.872;25.314;2023-07-13T01:01:51;15.90;;;10.70;;
42770;SDS011;28426;42.872;25.314;2023-07-13T01:04:23;15.15;;;10.93;;
42770;SDS011;28426;42.872;25.314;2023-07-13T01:06:54;13.98;;;9.98;;
42770;SDS011;28426;42.872;25.314;2023-07-13T01:09:30;15.57;;;10.57;;
42770;SDS011;28426;42.872;25.314;2023-07-13T01:12:01;22.60;;;10.70;;
42770;SDS011;28426;42.872;25.314;2023-07-13T01:14:32;20.50;;;10.30;;
42770;SDS011;28426;42.872;25.314;2023-07-13T01:17:03;15.13;;;10.77;;
42770;SDS011;28426;42.872;25.314;2023-07-13T01:19:36;15.68;;;10.55;;
42770;SDS011;28426;42.872;25.314;2023-07-13T01:22:11;16.60;;;10.95;;
42770;SDS011;28426;42.872;25.314;2023-07-13T01:24:45;15.23;;;10.68;;
42770;SDS011;28426;42.872;25.314;2023-07-13T01:27:19;15.38;;;10.68;;
42770;SDS011;28426;42.872;25.314;2023-07-13T01:32:30;15.25;;;10.77;;
42770;SDS011;28426;42.872;25.314;2023-07-13T01:35:01;15.02;;;10.23;;
42770;SDS011;28426;42.872;25.314;2023-07-13T01:37:35;16.27;;;10.98;;
42770;SDS011;28426;42.872;25.314;2023-07-13T01:40:08;15.80;;;10.65;;
42770;SDS011;28426;42.872;25.314;2023-07-13T01:42:40;17.02;;;11.25;;
42770;SDS011;28426;42.872;25.314;2023-07-13T01:45:11;14.38;;;10.40;;
42770;SDS011;28426;42.872;25.314;2023-07-13T01:47:42;18.20;;;10.60;;
42770;SDS011;28426;42.872;25.314;2023-07-13T01:50:13;18.42;;;10.52;;
42770;SDS011;28426;42.872;25.314;2023-07-13T01:52:48;19.33;;;10.88;;
42770;SDS011;28426;42.872;25.314;2023-07-13T01:55:20;14.02;;;10.10;;
42770;SDS011;28426;42.872;25.314;2023-07-13T01:57:51;16.27;;;10.95;;
42770;SDS011;28426;42.872;25.314;2023-07-13T02:00:22;17.15;;;10.50;;
42770;SDS011;28426;42.872;25.314;2023-07-13T02:02:54;16.27;;;10.48;;
42770;SDS011;28426;42.872;25.314;2023-07-13T02:05:25;15.85;;;10.70;;
42770;SDS011;28426;42.872;25.314;2023-07-13T02:07:59;20.38;;;10.82;;
42770;SDS011;28426;42.872;25.314;2023-07-13T02:10:31;16.25;;;10.57;;
42770;SDS011;28426;42.872;25.314;2023-07-13T02:13:03;15.07;;;10.93;;
42770;SDS011;28426;42.872;25.314;2023-07-13T02:15:38;15.35;;;10.27;;
42770;SDS011;28426;42.872;25.314;2023-07-13T02:18:10;17.90;;;10.40;;
42770;SDS011;28426;42.872;25.314;2023-07-13T02:21:04;14.52;;;10.23;;
42770;SDS011;28426;42.872;25.314;2023-07-13T02:23:37;14.60;;;10.38;;
42770;SDS011;28426;42.872;25.314;2023-07-13T02:26:08;15.63;;;9.80;;
42770;SDS011;28426;42.872;25.314;2023-07-13T02:28:39;17.15;;;10.25;;
42770;SDS011;28426;42.872;25.314;2023-07-13T02:31:12;16.38;;;10.57;;
42770;SDS011;28426;42.872;25.314;2023-07-13T02:33:45;17.35;;;10.73;;
42770;SDS011;28426;42.872;25.314;2023-07-13T02:36:17;16.08;;;10.02;;
42770;SDS011;28426;42.872;25.314;2023-07-13T02:38:51;15.43;;;10.73;;
42770;SDS011;28426;42.872;25.314;2023-07-13T02:41:22;16.13;;;10.45;;
42770;SDS011;28426;42.872;25.314;2023-07-13T02:43:53;15.85;;;9.95;;
42770;SDS011;28426;42.872;25.314;2023-07-13T02:46:30;13.32;;;10.40;;
42770;SDS011;28426;42.872;25.314;2023-07-13T02:49:02;15.25;;;10.30;;
42770;SDS011;28426;42.872;25.314;2023-07-13T02:51:34;13.88;;;10.15;;
42770;SDS011;28426;42.872;25.314;2023-07-13T02:54:08;14.55;;;10.73;;
42770;SDS011;28426;42.872;25.314;2023-07-13T02:56:41;18.98;;;10.25;;
42770;SDS011;28426;42.872;25.314;2023-07-13T02:59:13;14.65;;;10.45;;
42770;SDS011;28426;42.872;25.314;2023-07-13T03:01:44;18.67;;;10.65;;
42770;SDS011;28426;42.872;25.314;2023-07-13T03:04:15;18.55;;;10.05;;
42770;SDS011;28426;42.872;25.314;2023-07-13T03:06:47;16.92;;;11.52;;
42770;SDS011;28426;42.872;25.314;2023-07-13T03:09:21;16.25;;;10.32;;
42770;SDS011;28426;42.872;25.314;2023-07-13T03:11:53;14.32;;;10.27;;
42770;SDS011;28426;42.872;25.314;2023-07-13T03:14:30;24.17;;;10.77;;
42770;SDS011;28426;42.872;25.314;2023-07-13T03:17:04;15.05;;;10.30;;
42770;SDS011;28426;42.872;25.314;2023-07-13T03:19:38;13.60;;;10.55;;
42770;SDS011;28426;42.872;25.314;2023-07-13T03:22:11;14.07;;;9.95;;
42770;SDS011;28426;42.872;25.314;2023-07-13T03:24:45;20.90;;;10.43;;
42770;SDS011;28426;42.872;25.314;2023-07-13T03:27:16;21.45;;;10.38;;
42770;SDS011;28426;42.872;25.314;2023-07-13T03:29:49;13.60;;;9.82;;
42770;SDS011;28426;42.872;25.314;2023-07-13T03:32:20;17.98;;;10.63;;
42770;SDS011;28426;42.872;25.314;2023-07-13T03:34:51;14.95;;;10.07;;
42770;SDS011;28426;42.872;25.314;2023-07-13T03:37:23;14.90;;;9.88;;
42770;SDS011;28426;42.872;25.314;2023-07-13T03:39:57;18.92;;;10.15;;
42770;SDS011;28426;42.872;25.314;2023-07-13T03:42:30;14.52;;;9.73;;
42770;SDS011;28426;42.872;25.314;2023-07-13T03:45:01;13.65;;;9.35;;
42770;SDS011;28426;42.872;25.314;2023-07-13T03:47:33;15.18;;;9.90;;
42770;SDS011;28426;42.872;25.314;2023-07-13T03:50:05;13.90;;;9.68;;
42770;SDS011;28426;42.872;25.314;2023-07-13T03:52:37;23.13;;;10.98;;
42770;SDS011;28426;42.872;25.314;2023-07-13T03:55:11;15.13;;;9.65;;
42770;SDS011;28426;42.872;25.314;2023-07-13T03:57:42;13.50;;;9.20;;
42770;SDS011;28426;42.872;25.314;2023-07-13T04:00:13;14.00;;;9.77;;
42770;SDS011;28426;42.872;25.314;2023-07-13T04:02:44;16.27;;;9.55;;
42770;SDS011;28426;42.872;25.314;2023-07-13T04:05:17;13.88;;;9.10;;
42770;SDS011;28426;42.872;25.314;2023-07-13T04:07:48;13.13;;;8.80;;
42770;SDS011;28426;42.872;25.314;2023-07-13T04:10:21;16.08;;;9.80;;
42770;SDS011;28426;42.872;25.314;2023-07-13T04:12:52;15.05;;;9.05;;
42770;SDS011;28426;42.872;25.314;2023-07-13T04:15:23;13.48;;;8.90;;
42770;SDS011;28426;42.872;25.314;2023-07-13T04:17:54;14.70;;;9.32;;
42770;SDS011;28426;42.872;25.314;2023-07-13T04:20:25;15.02;;;9.32;;
42770;SDS011;28426;42.872;25.314;2023-07-13T04:22:56;11.88;;;8.70;;
42770;SDS011;28426;42.872;25.314;2023-07-13T04:25:30;12.50;;;8.18;;
42770;SDS011;28426;42.872;25.314;2023-07-13T04:28:02;14.82;;;9.05;;
42770;SDS011;28426;42.872;25.314;2023-07-13T04:30:34;13.52;;;7.63;;
42770;SDS011;28426;42.872;25.314;2023-07-13T04:33:05;18.15;;;8.50;;
42770;SDS011;28426;42.872;25.314;2023-07-13T04:35:36;10.77;;;7.90;;
42770;SDS011;28426;42.872;25.314;2023-07-13T04:38:07;12.90;;;8.43;;
42770;SDS011;28426;42.872;25.314;2023-07-13T04:40:42;15.15;;;8.45;;
42770;SDS011;28426;42.872;25.314;2023-07-13T04:45:43;11.68;;;7.60;;
42770;SDS011;28426;42.872;25.314;2023-07-13T04:48:14;11.90;;;7.43;;
42770;SDS011;28426;42.872;25.314;2023-07-13T04:50:45;12.27;;;8.32;;
42770;SDS011;28426;42.872;25.314;2023-07-13T04:53:17;11.73;;;8.18;;
42770;SDS011;28426;42.872;25.314;2023-07-13T04:55:50;12.18;;;7.47;;
42770;SDS011;28426;42.872;25.314;2023-07-13T04:58:21;15.02;;;7.65;;
42770;SDS011;28426;42.872;25.314;2023-07-13T05:00:53;13.43;;;7.72;;
42770;SDS011;28426;42.872;25.314;2023-07-13T05:03:29;11.40;;;7.40;;
42770;SDS011;28426;42.872;25.314;2023-07-13T05:06:02;10.77;;;7.05;;
42770;SDS011;28426;42.872;25.314;2023-07-13T05:08:34;13.70;;;7.65;;
42770;SDS011;28426;42.872;25.314;2023-07-13T05:11:08;12.52;;;6.60;;
42770;SDS011;28426;42.872;25.314;2023-07-13T05:13:39;9.82;;;6.60;;
42770;SDS011;28426;42.872;25.314;2023-07-13T05:16:10;10.73;;;5.88;;
42770;SDS011;28426;42.872;25.314;2023-07-13T05:18:41;9.13;;;6.18;;
42770;SDS011;28426;42.872;25.314;2023-07-13T05:21:12;11.27;;;6.50;;
42770;SDS011;28426;42.872;25.314;2023-07-13T05:23:43;10.88;;;6.43;;
42770;SDS011;28426;42.872;25.314;2023-07-13T05:26:16;12.35;;;6.55;;
42770;SDS011;28426;42.872;25.314;2023-07-13T05:28:48;9.90;;;6.38;;
42770;SDS011;28426;42.872;25.314;2023-07-13T05:31:18;11.27;;;6.32;;
42770;SDS011;28426;42.872;25.314;2023-07-13T05:33:49;9.40;;;6.20;;
42770;SDS011;28426;42.872;25.314;2023-07-13T05:36:20;8.70;;;5.82;;
42770;SDS011;28426;42.872;25.314;2023-07-13T05:38:51;9.68;;;5.60;;
42770;SDS011;28426;42.872;25.314;2023-07-13T05:41:25;8.82;;;6.07;;
42770;SDS011;28426;42.872;25.314;2023-07-13T05:43:55;12.73;;;6.53;;
42770;SDS011;28426;42.872;25.314;2023-07-13T05:46:26;10.20;;;5.63;;
42770;SDS011;28426;42.872;25.314;2023-07-13T05:48:58;10.00;;;5.53;;
42770;SDS011;28426;42.872;25.314;2023-07-13T05:51:29;8.27;;;5.38;;
42770;SDS011;28426;42.872;25.314;2023-07-13T05:54:00;11.73;;;5.60;;
42770;SDS011;28426;42.872;25.314;2023-07-13T05:56:33;9.65;;;5.53;;
42770;SDS011;28426;42.872;25.314;2023-07-13T05:59:04;9.03;;;5.80;;
42770;SDS011;28426;42.872;25.314;2023-07-13T06:01:36;8.05;;;5.47;;
42770;SDS011;28426;42.872;25.314;2023-07-13T06:04:06;11.02;;;6.50;;
42770;SDS011;28426;42.872;25.314;2023-07-13T06:06:38;10.23;;;5.82;;
42770;SDS011;28426;42.872;25.314;2023-07-13T06:09:08;8.30;;;5.03;;
42770;SDS011;28426;42.872;25.314;2023-07-13T06:11:42;9.35;;;5.85;;
42770;SDS011;28426;42.872;25.314;2023-07-13T06:14:13;11.23;;;6.63;;
42770;SDS011;28426;42.872;25.314;2023-07-13T06:16:43;8.55;;;5.22;;
42770;SDS011;28426;42.872;25.314;2023-07-13T06:19:14;8.95;;;5.45;;
42770;SDS011;28426;42.872;25.314;2023-07-13T06:21:45;12.65;;;5.30;;
42770;SDS011;28426;42.872;25.314;2023-07-13T06:24:16;9.23;;;4.47;;
42770;SDS011;28426;42.872;25.314;2023-07-13T06:26:49;9.02;;;4.57;;
42770;SDS011;28426;42.872;25.314;2023-07-13T06:29:20;6.97;;;4.63;;
42770;SDS011;28426;42.872;25.314;2023-07-13T06:31:51;7.75;;;5.15;;
42770;SDS011;28426;42.872;25.314;2023-07-13T06:34:22;8.43;;;4.90;;
42770;SDS011;28426;42.872;25.314;2023-07-13T06:36:53;12.88;;;5.20;;
42770;SDS011;28426;42.872;25.314;2023-07-13T06:39:23;8.10;;;4.82;;
42770;SDS011;28426;42.872;25.314;2023-07-13T06:41:57;9.82;;;4.50;;
42770;SDS011;28426;42.872;25.314;2023-07-13T06:44:28;9.52;;;5.22;;
42770;SDS011;28426;42.872;25.314;2023-07-13T06:46:58;9.07;;;4.88;;
42770;SDS011;28426;42.872;25.314;2023-07-13T06:49:29;8.18;;;4.72;;
42770;SDS011;28426;42.872;25.314;2023-07-13T06:52:00;10.82;;;5.00;;
42770;SDS011;28426;42.872;25.314;2023-07-13T06:54:31;10.43;;;5.72;;
42770;SDS011;28426;42.872;25.314;2023-07-13T06:57:05;9.77;;;4.68;;
42770;SDS011;28426;42.872;25.314;2023-07-13T06:59:36;7.65;;;4.38;;
42770;SDS011;28426;42.872;25.314;2023-07-13T07:02:08;11.27;;;5.35;;
42770;SDS011;28426;42.872;25.314;2023-07-13T07:04:40;8.93;;;4.75;;
42770;SDS011;28426;42.872;25.314;2023-07-13T07:07:11;7.38;;;4.47;;
42770;SDS011;28426;42.872;25.314;2023-07-13T07:09:41;9.18;;;4.78;;
42770;SDS011;28426;42.872;25.314;2023-07-13T07:12:15;8.07;;;4.60;;
42770;SDS011;28426;42.872;25.314;2023-07-13T07:14:46;7.90;;;4.88;;
42770;SDS011;28426;42.872;25.314;2023-07-13T07:17:17;11.40;;;4.93;;
42770;SDS011;28426;42.872;25.314;2023-07-13T07:19:51;6.97;;;4.50;;
42770;SDS011;28426;42.872;25.314;2023-07-13T07:22:21;7.90;;;4.53;;
42770;SDS011;28426;42.872;25.314;2023-07-13T07:24:54;10.70;;;4.82;;
42770;SDS011;28426;42.872;25.314;2023-07-13T07:27:28;7.28;;;4.65;;
42770;SDS011;28426;42.872;25.314;2023-07-13T07:30:02;11.23;;;4.85;;
42770;SDS011;28426;42.872;25.314;2023-07-13T07:32:36;8.60;;;4.40;;
42770;SDS011;28426;42.872;25.314;2023-07-13T07:35:10;12.48;;;4.88;;
42770;SDS011;28426;42.872;25.314;2023-07-13T07:37:41;8.27;;;4.15;;
42770;SDS011;28426;42.872;25.314;2023-07-13T07:40:16;10.68;;;4.72;;
42770;SDS011;28426;42.872;25.314;2023-07-13T07:45:23;23.70;;;9.00;;
42770;SDS011;28426;42.872;25.314;2023-07-13T07:47:54;15.32;;;4.85;;
42770;SDS011;28426;42.872;25.314;2023-07-13T07:50:26;8.27;;;4.90;;
42770;SDS011;28426;42.872;25.314;2023-07-13T07:52:58;9.00;;;4.55;;
42770;SDS011;28426;42.872;25.314;2023-07-13T07:55:29;13.23;;;5.45;;
42770;SDS011;28426;42.872;25.314;2023-07-13T07:58:08;8.50;;;4.65;;
42770;SDS011;28426;42.872;25.314;2023-07-13T08:01:03;9.02;;;3.92;;
42770;SDS011;28426;42.872;25.314;2023-07-13T08:03:37;9.25;;;4.20;;
42770;SDS011;28426;42.872;25.314;2023-07-13T08:06:11;9.82;;;4.10;;
42770;SDS011;28426;42.872;25.314;2023-07-13T08:09:01;7.18;;;3.80;;
42770;SDS011;28426;42.872;25.314;2023-07-13T08:11:33;6.38;;;3.22;;
42770;SDS011;28426;42.872;25.314;2023-07-13T08:14:10;6.65;;;3.55;;
42770;SDS011;28426;42.872;25.314;2023-07-13T08:19:11;10.40;;;3.70;;
42770;SDS011;28426;42.872;25.314;2023-07-13T08:21:42;10.82;;;4.03;;
42770;SDS011;28426;42.872;25.314;2023-07-13T08:24:15;9.27;;;3.80;;
42770;SDS011;28426;42.872;25.314;2023-07-13T08:26:46;5.43;;;3.88;;
42770;SDS011;28426;42.872;25.314;2023-07-13T08:29:20;8.60;;;4.70;;
42770;SDS011;28426;42.872;25.314;2023-07-13T08:31:51;8.35;;;3.65;;
42770;SDS011;28426;42.872;25.314;2023-07-13T08:34:22;9.40;;;3.97;;
42770;SDS011;28426;42.872;25.314;2023-07-13T08:36:53;8.32;;;3.53;;
42770;SDS011;28426;42.872;25.314;2023-07-13T08:39:24;8.50;;;3.40;;
42770;SDS011;28426;42.872;25.314;2023-07-13T08:41:59;7.43;;;4.20;;
42770;SDS011;28426;42.872;25.314;2023-07-13T08:44:40;7.22;;;3.70;;
42770;SDS011;28426;42.872;25.314;2023-07-13T08:47:22;23.83;;;5.55;;
42770;SDS011;28426;42.872;25.314;2023-07-13T08:49:54;6.10;;;4.10;;
42770;SDS011;28426;42.872;25.314;2023-07-13T08:52:29;8.68;;;3.47;;
42770;SDS011;28426;42.872;25.314;2023-07-13T08:55:05;6.57;;;3.58;;
42770;SDS011;28426;42.872;25.314;2023-07-13T08:57:43;8.48;;;3.42;;
42770;SDS011;28426;42.872;25.314;2023-07-13T09:00:22;8.40;;;3.55;;
42770;SDS011;28426;42.872;25.314;2023-07-13T09:05:38;13.77;;;4.07;;
42770;SDS011;28426;42.872;25.314;2023-07-13T09:08:15;9.82;;;4.30;;
42770;SDS011;28426;42.872;25.314;2023-07-13T09:11:03;7.47;;;3.97;;
42770;SDS011;28426;42.872;25.314;2023-07-13T09:13:48;10.88;;;3.70;;
42770;SDS011;28426;42.872;25.314;2023-07-13T09:16:30;7.35;;;3.65;;
42770;SDS011;28426;42.872;25.314;2023-07-13T09:19:02;8.35;;;3.67;;
42770;SDS011;28426;42.872;25.314;2023-07-13T09:21:36;6.00;;;3.20;;
42770;SDS011;28426;42.872;25.314;2023-07-13T09:24:23;9.50;;;3.63;;
42770;SDS011;28426;42.872;25.314;2023-07-13T09:27:01;7.47;;;3.47;;
42770;SDS011;28426;42.872;25.314;2023-07-13T09:29:40;6.22;;;3.28;;
42770;SDS011;28426;42.872;25.314;2023-07-13T09:32:18;7.63;;;3.47;;
42770;SDS011;28426;42.872;25.314;2023-07-13T09:34:53;8.55;;;3.60;;
42770;SDS011;28426;42.872;25.314;2023-07-13T09:37:28;6.82;;;3.60;;
42770;SDS011;28426;42.872;25.314;2023-07-13T09:40:01;8.00;;;3.40;;
42770;SDS011;28426;42.872;25.314;2023-07-13T09:42:36;7.47;;;3.72;;
42770;SDS011;28426;42.872;25.314;2023-07-13T09:45:08;7.90;;;3.70;;
42770;SDS011;28426;42.872;25.314;2023-07-13T09:47:42;7.57;;;3.80;;
42770;SDS011;28426;42.872;25.314;2023-07-13T09:50:14;7.53;;;4.10;;
42770;SDS011;28426;42.872;25.314;2023-07-13T09:52:47;8.23;;;3.88;;
42770;SDS011;28426;42.872;25.314;2023-07-13T09:55:25;7.18;;;3.72;;
42770;SDS011;28426;42.872;25.314;2023-07-13T09:58:02;5.82;;;3.72;;
42770;SDS011;28426;42.872;25.314;2023-07-13T10:00:35;8.02;;;3.72;;
42770;SDS011;28426;42.872;25.314;2023-07-13T10:03:17;7.18;;;3.75;;
42770;SDS011;28426;42.872;25.314;2023-07-13T10:05:50;7.18;;;3.67;;
42770;SDS011;28426;42.872;25.314;2023-07-13T10:08:24;9.50;;;3.72;;
42770;SDS011;28426;42.872;25.314;2023-07-13T10:10:58;8.18;;;3.72;;
42770;SDS011;28426;42.872;25.314;2023-07-13T10:13:32;9.25;;;3.72;;
42770;SDS011;28426;42.872;25.314;2023-07-13T10:16:06;6.53;;;3.72;;
42770;SDS011;28426;42.872;25.314;2023-07-13T10:18:44;7.15;;;3.80;;
42770;SDS011;28426;42.872;25.314;2023-07-13T10:21:19;9.00;;;3.72;;
42770;SDS011;28426;42.872;25.314;2023-07-13T10:24:04;7.93;;;4.18;;
42770;SDS011;28426;42.872;25.314;2023-07-13T10:26:52;6.15;;;3.65;;
42770;SDS011;28426;42.872;25.314;2023-07-13T10:29:28;7.63;;;3.63;;
42770;SDS011;28426;42.872;25.314;2023-07-13T10:32:03;5.53;;;3.60;;
42770;SDS011;28426;42.872;25.314;2023-07-13T10:34:43;7.32;;;3.63;;
42770;SDS011;28426;42.872;25.314;2023-07-13T10:37:19;7.57;;;3.90;;
42770;SDS011;28426;42.872;25.314;2023-07-13T10:39:53;8.63;;;4.15;;
42770;SDS011;28426;42.872;25.314;2023-07-13T10:42:27;8.35;;;4.10;;
42770;SDS011;28426;42.872;25.314;2023-07-13T10:45:02;5.70;;;4.00;;
42770;SDS011;28426;42.872;25.314;2023-07-13T10:47:41;5.32;;;3.67;;
42770;SDS011;28426;42.872;25.314;2023-07-13T10:50:17;7.55;;;3.40;;
42770;SDS011;28426;42.872;25.314;2023-07-13T10:52:51;7.82;;;3.55;;
42770;SDS011;28426;42.872;25.314;2023-07-13T10:55:35;7.10;;;3.97;;
42770;SDS011;28426;42.872;25.314;2023-07-13T10:58:12;6.43;;;3.80;;
42770;SDS011;28426;42.872;25.314;2023-07-13T11:00:49;7.30;;;4.32;;
42770;SDS011;28426;42.872;25.314;2023-07-13T11:03:33;8.35;;;4.00;;
42770;SDS011;28426;42.872;25.314;2023-07-13T11:06:13;6.43;;;4.18;;
42770;SDS011;28426;42.872;25.314;2023-07-13T11:08:52;8.02;;;4.10;;
42770;SDS011;28426;42.872;25.314;2023-07-13T11:11:32;5.95;;;4.00;;
42770;SDS011;28426;42.872;25.314;2023-07-13T11:14:25;7.43;;;3.78;;
42770;SDS011;28426;42.872;25.314;2023-07-13T11:16:58;6.38;;;3.70;;
42770;SDS011;28426;42.872;25.314;2023-07-13T11:22:25;8.07;;;3.83;;
42770;SDS011;28426;42.872;25.314;2023-07-13T11:25:25;11.65;;;4.22;;
42770;SDS011;28426;42.872;25.314;2023-07-13T11:28:11;7.93;;;3.83;;
42770;SDS011;28426;42.872;25.314;2023-07-13T11:30:47;8.07;;;4.15;;
42770;SDS011;28426;42.872;25.314;2023-07-13T11:33:21;6.15;;;4.22;;
42770;SDS011;28426;42.872;25.314;2023-07-13T11:35:58;7.57;;;3.72;;
42770;SDS011;28426;42.872;25.314;2023-07-13T11:38:37;7.85;;;3.55;;
42770;SDS011;28426;42.872;25.314;2023-07-13T11:41:13;7.10;;;4.00;;
42770;SDS011;28426;42.872;25.314;2023-07-13T11:43:48;7.30;;;3.90;;
42770;SDS011;28426;42.872;25.314;2023-07-13T11:46:20;10.63;;;4.45;;
42770;SDS011;28426;42.872;25.314;2023-07-13T11:48:53;9.97;;;4.70;;
42770;SDS011;28426;42.872;25.314;2023-07-13T11:51:25;6.63;;;3.85;;
42770;SDS011;28426;42.872;25.314;2023-07-13T11:54:01;8.65;;;4.55;;
42770;SDS011;28426;42.872;25.314;2023-07-13T11:56:35;7.68;;;4.30;;
42770;SDS011;28426;42.872;25.314;2023-07-13T11:59:07;8.05;;;4.25;;
42770;SDS011;28426;42.872;25.314;2023-07-13T12:01:43;5.47;;;4.00;;
42770;SDS011;28426;42.872;25.314;2023-07-13T12:04:19;8.10;;;4.57;;
42770;SDS011;28426;42.872;25.314;2023-07-13T12:06:54;7.40;;;3.95;;
42770;SDS011;28426;42.872;25.314;2023-07-13T12:12:00;6.60;;;4.22;;
42770;SDS011;28426;42.872;25.314;2023-07-13T12:14:33;8.15;;;4.00;;
42770;SDS011;28426;42.872;25.314;2023-07-13T12:17:07;8.82;;;4.20;;
42770;SDS011;28426;42.872;25.314;2023-07-13T12:19:41;6.75;;;4.47;;
42770;SDS011;28426;42.872;25.314;2023-07-13T12:22:14;5.63;;;3.92;;
42770;SDS011;28426;42.872;25.314;2023-07-13T12:24:50;8.48;;;4.45;;
42770;SDS011;28426;42.872;25.314;2023-07-13T12:27:23;9.18;;;4.30;;
42770;SDS011;28426;42.872;25.314;2023-07-13T12:29:58;9.13;;;4.30;;
42770;SDS011;28426;42.872;25.314;2023-07-13T12:32:32;8.27;;;4.32;;
42770;SDS011;28426;42.872;25.314;2023-07-13T12:35:13;7.88;;;4.40;;
42770;SDS011;28426;42.872;25.314;2023-07-13T12:37:50;7.68;;;4.30;;
42770;SDS011;28426;42.872;25.314;2023-07-13T12:40:26;7.63;;;3.97;;
42770;SDS011;28426;42.872;25.314;2023-07-13T12:43:03;7.25;;;4.32;;
42770;SDS011;28426;42.872;25.314;2023-07-13T12:45:34;9.02;;;4.28;;
42770;SDS011;28426;42.872;25.314;2023-07-13T12:48:10;7.25;;;3.90;;
42770;SDS011;28426;42.872;25.314;2023-07-13T12:50:55;7.97;;;4.65;;
42770;SDS011;28426;42.872;25.314;2023-07-13T12:53:30;8.70;;;4.60;;
42770;SDS011;28426;42.872;25.314;2023-07-13T12:56:15;12.15;;;4.78;;
42770;SDS011;28426;42.872;25.314;2023-07-13T12:58:51;10.30;;;4.30;;
42770;SDS011;28426;42.872;25.314;2023-07-13T13:01:27;7.18;;;4.07;;
42770;SDS011;28426;42.872;25.314;2023-07-13T13:04:00;9.30;;;4.35;;
42770;SDS011;28426;42.872;25.314;2023-07-13T13:06:36;8.75;;;4.43;;
42770;SDS011;28426;42.872;25.314;2023-07-13T13:09:11;14.27;;;5.43;;
42770;SDS011;28426;42.872;25.314;2023-07-13T13:14:17;21.92;;;5.90;;
42770;SDS011;28426;42.872;25.314;2023-07-13T13:16:49;43.00;;;7.93;;
42770;SDS011;28426;42.872;25.314;2023-07-13T13:19:23;16.27;;;5.18;;
42770;SDS011;28426;42.872;25.314;2023-07-13T13:21:56;11.57;;;4.90;;
42770;SDS011;28426;42.872;25.314;2023-07-13T13:24:27;14.50;;;4.60;;
42770;SDS011;28426;42.872;25.314;2023-07-13T13:27:01;13.85;;;5.10;;
42770;SDS011;28426;42.872;25.314;2023-07-13T13:29:32;6.57;;;4.47;;
42770;SDS011;28426;42.872;25.314;2023-07-13T13:32:10;10.52;;;4.90;;
42770;SDS011;28426;42.872;25.314;2023-07-13T13:34:43;9.37;;;5.33;;
42770;SDS011;28426;42.872;25.314;2023-07-13T13:37:18;10.68;;;4.13;;
42770;SDS011;28426;42.872;25.314;2023-07-13T13:39:50;12.73;;;4.90;;
42770;SDS011;28426;42.872;25.314;2023-07-13T13:42:38;9.60;;;4.90;;
42770;SDS011;28426;42.872;25.314;2023-07-13T13:45:09;14.43;;;5.60;;
42770;SDS011;28426;42.872;25.314;2023-07-13T13:47:41;15.57;;;5.47;;
42770;SDS011;28426;42.872;25.314;2023-07-13T13:50:12;11.55;;;4.85;;
42770;SDS011;28426;42.872;25.314;2023-07-13T13:52:45;16.20;;;5.28;;
42770;SDS011;28426;42.872;25.314;2023-07-13T13:55:17;9.23;;;4.65;;
42770;SDS011;28426;42.872;25.314;2023-07-13T13:57:51;12.45;;;4.63;;
42770;SDS011;28426;42.872;25.314;2023-07-13T14:00:22;14.15;;;5.18;;
42770;SDS011;28426;42.872;25.314;2023-07-13T14:02:53;12.88;;;4.28;;
42770;SDS011;28426;42.872;25.314;2023-07-13T14:05:25;12.50;;;4.57;;
42770;SDS011;28426;42.872;25.314;2023-07-13T14:07:57;17.23;;;5.55;;
42770;SDS011;28426;42.872;25.314;2023-07-13T14:10:28;14.73;;;6.57;;
42770;SDS011;28426;42.872;25.314;2023-07-13T14:13:02;15.35;;;5.72;;
42770;SDS011;28426;42.872;25.314;2023-07-13T14:15:35;12.80;;;5.18;;
42770;SDS011;28426;42.872;25.314;2023-07-13T14:18:07;15.18;;;5.65;;
42770;SDS011;28426;42.872;25.314;2023-07-13T14:20:39;11.57;;;6.00;;
42770;SDS011;28426;42.872;25.314;2023-07-13T14:23:10;15.15;;;5.18;;
42770;SDS011;28426;42.872;25.314;2023-07-13T14:25:40;10.93;;;5.32;;
42770;SDS011;28426;42.872;25.314;2023-07-13T14:28:19;14.60;;;5.00;;
42770;SDS011;28426;42.872;25.314;2023-07-13T14:30:52;20.38;;;6.07;;
42770;SDS011;28426;42.872;25.314;2023-07-13T14:33:24;25.40;;;6.32;;
42770;SDS011;28426;42.872;25.314;2023-07-13T14:35:55;79.38;;;9.90;;
42770;SDS011;28426;42.872;25.314;2023-07-13T14:38:26;60.58;;;8.32;;
42770;SDS011;28426;42.872;25.314;2023-07-13T14:40:57;47.85;;;8.38;;
42770;SDS011;28426;42.872;25.314;2023-07-13T14:43:31;32.60;;;7.45;;
42770;SDS011;28426;42.872;25.314;2023-07-13T14:46:02;19.52;;;5.68;;
42770;SDS011;28426;42.872;25.314;2023-07-13T14:48:33;30.15;;;6.13;;
42770;SDS011;28426;42.872;25.314;2023-07-13T14:51:07;19.65;;;6.07;;
42770;SDS011;28426;42.872;25.314;2023-07-13T14:53:39;17.65;;;6.28;;
42770;SDS011;28426;42.872;25.314;2023-07-13T14:56:10;19.67;;;5.90;;
42770;SDS011;28426;42.872;25.314;2023-07-13T14:58:44;24.10;;;6.78;;
42770;SDS011;28426;42.872;25.314;2023-07-13T15:01:15;40.03;;;6.87;;
42770;SDS011;28426;42.872;25.314;2023-07-13T15:03:47;16.52;;;5.55;;
42770;SDS011;28426;42.872;25.314;2023-07-13T15:06:20;13.55;;;5.70;;
42770;SDS011;28426;42.872;25.314;2023-07-13T15:08:51;16.98;;;5.78;;
42770;SDS011;28426;42.872;25.314;2023-07-13T15:11:23;12.70;;;5.20;;
42770;SDS011;28426;42.872;25.314;2023-07-13T15:13:56;12.68;;;5.57;;
42770;SDS011;28426;42.872;25.314;2023-07-13T15:16:27;14.60;;;5.80;;
42770;SDS011;28426;42.872;25.314;2023-07-13T15:18:58;10.32;;;4.85;;
42770;SDS011;28426;42.872;25.314;2023-07-13T15:21:29;15.75;;;6.03;;
42770;SDS011;28426;42.872;25.314;2023-07-13T15:24:04;9.88;;;4.78;;